createdAt,value
2019-05-15T00:01:28.550Z,7.45
2019-05-15T00:03:58.498Z,6.47
2019-05-15T00:06:28.564Z,6.10
2019-05-15T00:08:58.877Z,6.78
2019-05-15T00:11:28.734Z,6.22
2019-05-15T00:13:58.960Z,6.20
2019-05-15T00:16:29.101Z,5.72
2019-05-15T00:18:59.089Z,6.05
2019-05-15T00:21:28.774Z,6.05
2019-05-15T00:23:58.696Z,6.05
2019-05-15T00:26:29.862Z,6.20
2019-05-15T00:29:09.436Z,5.70
2019-05-15T00:31:29.169Z,6.53
2019-05-15T00:33:58.945Z,7.67
2019-05-15T00:36:28.667Z,5.62
2019-05-15T00:38:59.064Z,5.55
2019-05-15T00:41:27.935Z,6.20
2019-05-15T00:43:58.517Z,4.08
2019-05-15T00:46:28.914Z,4.70
2019-05-15T00:48:59.214Z,4.00
2019-05-15T00:51:28.421Z,4.33
2019-05-15T00:53:58.956Z,3.52
2019-05-15T00:56:28.418Z,3.67
2019-05-15T00:58:58.858Z,3.80
2019-05-15T01:01:28.697Z,3.83
2019-05-15T01:03:58.663Z,3.80
2019-05-15T01:06:28.481Z,3.80
2019-05-15T01:08:58.855Z,5.10
2019-05-15T01:11:28.488Z,4.45
2019-05-15T01:13:58.526Z,4.17
2019-05-15T01:16:28.149Z,3.37
2019-05-15T01:18:58.604Z,3.10
2019-05-15T01:21:27.932Z,2.95
2019-05-15T01:26:24.666Z,3.55
2019-05-15T01:28:53.278Z,4.10
2019-05-15T01:31:21.840Z,4.15
2019-05-15T01:33:50.440Z,4.73
2019-05-15T01:36:19.390Z,4.40
2019-05-15T01:38:48.158Z,5.17
2019-05-15T01:41:18.738Z,4.75
2019-05-15T01:43:48.984Z,3.90
2019-05-15T01:46:19.053Z,4.85
2019-05-15T01:48:49.379Z,3.30
2019-05-15T01:51:18.522Z,3.90
2019-05-15T01:53:48.085Z,3.92
2019-05-15T01:56:18.788Z,3.25
2019-05-15T01:58:48.688Z,4.80
2019-05-15T02:01:19.177Z,6.17
2019-05-15T02:03:49.272Z,6.45
2019-05-15T02:06:19.020Z,6.62
2019-05-15T02:08:49.767Z,5.60
2019-05-15T02:11:18.181Z,7.22
2019-05-15T02:13:48.027Z,5.55
2019-05-15T02:16:18.990Z,4.25
2019-05-15T02:18:48.900Z,4.25
2019-05-15T02:21:18.281Z,3.87
2019-05-15T02:23:48.145Z,3.12
2019-05-15T02:26:18.963Z,3.98
2019-05-15T02:28:48.797Z,3.35
2019-05-15T02:31:19.481Z,3.80
2019-05-15T02:33:49.831Z,3.58
2019-05-15T02:36:20.486Z,3.00
2019-05-15T02:38:48.745Z,3.45
2019-05-15T02:41:19.580Z,3.10
2019-05-15T02:43:50.129Z,2.90
2019-05-15T02:46:19.392Z,2.45
2019-05-15T02:48:48.884Z,2.58
2019-05-15T02:56:20.012Z,2.20
2019-05-15T02:58:49.069Z,2.08
2019-05-15T03:01:18.896Z,1.92
2019-05-15T03:03:49.728Z,1.98
2019-05-15T03:06:19.354Z,2.10
2019-05-15T03:08:49.674Z,1.90
2019-05-15T03:11:19.144Z,2.05
2019-05-15T03:16:19.387Z,1.90
2019-05-15T03:18:50.534Z,1.80
2019-05-15T03:21:18.825Z,1.92
2019-05-15T03:23:50.755Z,2.08
2019-05-15T03:26:19.822Z,2.00
2019-05-15T03:28:49.598Z,1.60
2019-05-15T03:31:41.777Z,2.30
2019-05-15T03:33:54.287Z,1.82
2019-05-15T03:36:22.948Z,1.67
2019-05-15T03:38:50.081Z,1.62
2019-05-15T03:41:19.672Z,1.62
2019-05-15T03:43:49.679Z,2.17
2019-05-15T03:46:19.955Z,1.60
2019-05-15T03:48:48.941Z,1.60
2019-05-15T03:51:19.836Z,1.72
2019-05-15T03:53:49.779Z,1.50
2019-05-15T03:56:19.149Z,1.90
2019-05-15T03:58:49.316Z,1.72
2019-05-15T04:01:29.782Z,1.67
2019-05-15T04:03:49.585Z,1.50
2019-05-15T04:06:19.366Z,1.87
2019-05-15T04:08:49.572Z,1.42
2019-05-15T04:11:20.365Z,1.45
2019-05-15T04:13:50.164Z,1.00
2019-05-15T04:16:19.318Z,1.37
2019-05-15T04:18:49.028Z,1.80
2019-05-15T04:21:20.070Z,2.20
2019-05-15T04:23:50.082Z,1.37
2019-05-15T04:26:19.681Z,1.50
2019-05-15T04:28:49.519Z,1.50
2019-05-15T04:31:19.338Z,1.65
2019-05-15T04:33:49.130Z,1.98
2019-05-15T04:36:19.206Z,2.00
2019-05-15T04:38:49.657Z,1.50
2019-05-15T04:41:19.804Z,2.27
2019-05-15T04:43:49.591Z,5.95
2019-05-15T04:46:19.740Z,1.95
2019-05-15T04:48:50.148Z,1.40
2019-05-15T04:51:19.116Z,2.67
2019-05-15T04:53:50.291Z,1.70
2019-05-15T04:56:19.559Z,1.40
2019-05-15T04:58:50.585Z,1.72
2019-05-15T05:01:19.961Z,2.87
2019-05-15T05:03:49.586Z,3.17
2019-05-15T05:06:19.218Z,2.00
2019-05-15T05:11:19.426Z,2.67
2019-05-15T05:13:48.533Z,1.60
2019-05-15T05:23:45.588Z,2.08
2019-05-15T05:26:14.186Z,2.98
2019-05-15T05:28:42.906Z,1.87
2019-05-15T05:31:14.134Z,1.92
2019-05-15T05:33:42.136Z,1.75
2019-05-15T05:36:10.860Z,1.80
2019-05-15T05:38:39.541Z,3.12
2019-05-15T05:41:08.425Z,3.02
2019-05-15T05:43:38.294Z,1.60
2019-05-15T05:46:09.232Z,1.50
2019-05-15T05:48:38.360Z,1.90
2019-05-15T05:51:09.286Z,2.55
2019-05-15T05:53:38.302Z,1.35
2019-05-15T05:56:08.974Z,1.40
2019-05-15T05:58:38.994Z,2.77
2019-05-15T06:01:09.377Z,2.37
2019-05-15T06:03:38.606Z,4.10
2019-05-15T06:08:38.953Z,1.65
2019-05-15T06:11:09.672Z,1.98
2019-05-15T06:13:38.230Z,1.32
2019-05-15T06:18:38.859Z,1.45
2019-05-15T06:21:09.127Z,1.55
2019-05-15T06:23:44.157Z,5.10
2019-05-15T06:26:09.612Z,5.72
2019-05-15T06:28:39.427Z,1.50
2019-05-15T06:31:08.754Z,1.90
2019-05-15T06:33:38.579Z,1.50
2019-05-15T06:36:08.899Z,1.40
2019-05-15T06:38:39.334Z,1.47
2019-05-15T06:41:08.697Z,1.60
2019-05-15T06:43:38.971Z,1.32
2019-05-15T06:46:09.111Z,1.90
2019-05-15T06:48:38.135Z,1.72
2019-05-15T06:51:08.822Z,2.40
2019-05-15T06:53:38.458Z,2.25
2019-05-15T06:56:07.948Z,2.70
2019-05-15T06:58:38.504Z,1.62
2019-05-15T07:01:08.756Z,1.62
2019-05-15T07:03:39.207Z,1.50
2019-05-15T07:06:09.292Z,2.15
2019-05-15T07:08:38.445Z,1.77
2019-05-15T07:11:08.907Z,2.90
2019-05-15T07:13:38.284Z,2.08
2019-05-15T07:16:08.211Z,1.98
2019-05-15T07:18:39.026Z,2.00
2019-05-15T07:21:10.066Z,1.80
2019-05-15T07:23:38.627Z,4.12
2019-05-15T07:26:09.549Z,2.02
2019-05-15T07:28:38.337Z,1.72
2019-05-15T07:31:11.231Z,2.17
2019-05-15T07:33:43.168Z,1.95
2019-05-15T07:36:08.423Z,2.05
2019-05-15T07:38:39.115Z,1.65
2019-05-15T07:41:10.186Z,3.75
2019-05-15T07:43:38.502Z,1.90
2019-05-15T07:46:08.395Z,1.85
2019-05-15T07:48:38.368Z,1.70
2019-05-15T07:51:11.505Z,1.75
2019-05-15T07:53:38.402Z,3.00
2019-05-15T07:56:11.679Z,2.10
2019-05-15T07:58:38.595Z,1.70
2019-05-15T08:01:09.970Z,1.80
2019-05-15T08:03:47.387Z,1.67
2019-05-15T08:06:08.770Z,7.25
2019-05-15T08:08:39.382Z,1.80
2019-05-15T08:11:17.648Z,2.10
2019-05-15T08:13:38.471Z,1.70
2019-05-15T08:16:08.628Z,1.60
2019-05-15T08:18:39.371Z,1.62
2019-05-15T08:21:08.972Z,3.20
2019-05-15T08:23:39.117Z,1.50
2019-05-15T08:26:08.802Z,1.40
2019-05-15T08:28:38.307Z,1.20
2019-05-15T08:31:10.075Z,1.67
2019-05-15T08:33:38.880Z,1.60
2019-05-15T08:36:08.367Z,1.60
2019-05-15T08:38:38.318Z,1.40
2019-05-15T08:41:11.218Z,1.60
2019-05-15T08:43:38.468Z,7.45
2019-05-15T08:46:08.333Z,1.22
2019-05-15T08:48:38.328Z,1.75
2019-05-15T08:51:08.675Z,2.75
2019-05-15T08:53:38.087Z,4.42
2019-05-15T08:56:08.550Z,1.27
2019-05-15T08:58:38.152Z,1.45
2019-05-15T09:01:09.777Z,1.35
2019-05-15T09:03:38.158Z,1.80
2019-05-15T09:08:38.765Z,1.37
2019-05-15T09:11:08.919Z,1.30
2019-05-15T09:13:42.717Z,2.42
2019-05-15T09:16:08.257Z,2.00
2019-05-15T09:18:39.200Z,1.12
2019-05-15T09:21:08.791Z,1.52
2019-05-15T09:23:38.731Z,1.52
2019-05-15T09:26:09.270Z,1.70
2019-05-15T09:28:39.133Z,1.50
2019-05-15T09:31:08.485Z,1.92
2019-05-15T09:33:38.661Z,1.30
2019-05-15T09:36:09.105Z,1.70
2019-05-15T09:38:39.149Z,1.67
2019-05-15T09:41:09.013Z,2.00
2019-05-15T09:43:38.556Z,2.22
2019-05-15T09:46:10.419Z,1.47
2019-05-15T09:48:39.152Z,1.70
2019-05-15T09:51:09.310Z,1.75
2019-05-15T09:53:39.366Z,1.35
2019-05-15T09:56:08.539Z,2.00
2019-05-15T09:58:38.191Z,1.80
2019-05-15T10:01:08.462Z,2.70
2019-05-15T10:03:39.511Z,1.90
2019-05-15T10:06:08.315Z,1.82
2019-05-15T10:08:39.519Z,1.87
2019-05-15T10:11:09.069Z,1.50
2019-05-15T10:13:38.431Z,1.50
2019-05-15T10:16:08.292Z,1.30
2019-05-15T10:18:38.959Z,1.40
2019-05-15T10:21:09.023Z,1.55
2019-05-15T10:23:40.398Z,1.98
2019-05-15T10:26:13.999Z,1.87
2019-05-15T10:28:39.404Z,1.98
2019-05-15T10:31:09.428Z,1.90
2019-05-15T10:33:39.278Z,2.10
2019-05-15T10:36:08.567Z,1.45
2019-05-15T10:38:39.135Z,2.08
2019-05-15T10:41:11.274Z,1.47
2019-05-15T10:43:45.471Z,1.70
2019-05-15T10:46:13.213Z,1.62
2019-05-15T10:48:38.880Z,1.37
2019-05-15T10:51:10.246Z,1.65
2019-05-15T10:53:39.166Z,2.05
2019-05-15T10:56:08.894Z,1.50
2019-05-15T10:58:39.161Z,1.87
2019-05-15T11:01:10.969Z,1.75
2019-05-15T11:03:39.936Z,1.75
2019-05-15T11:06:09.321Z,2.30
2019-05-15T11:08:40.551Z,1.75
2019-05-15T11:11:09.171Z,1.62
2019-05-15T11:13:38.380Z,2.00
2019-05-15T11:16:07.142Z,1.70
2019-05-15T11:18:35.866Z,2.00
2019-05-15T11:21:04.647Z,1.70
2019-05-15T11:23:33.339Z,1.60
2019-05-15T11:26:02.071Z,1.65
2019-05-15T11:28:32.257Z,1.70
2019-05-15T11:31:01.046Z,1.92
2019-05-15T11:33:29.644Z,1.85
2019-05-15T11:36:05.434Z,2.00
2019-05-15T11:38:29.100Z,2.55
2019-05-15T11:40:57.911Z,2.35
2019-05-15T11:43:29.138Z,2.47
2019-05-15T11:45:58.865Z,2.42
2019-05-15T11:48:29.910Z,2.37
2019-05-15T11:50:57.571Z,1.80
2019-05-15T11:53:28.388Z,2.55
2019-05-15T11:55:56.509Z,2.17
2019-05-15T11:58:25.139Z,1.98
2019-05-15T12:00:53.733Z,2.10
2019-05-15T12:03:24.846Z,2.40
2019-05-15T12:05:52.621Z,2.30
2019-05-15T12:08:21.214Z,2.33
2019-05-15T12:10:49.909Z,2.83
2019-05-15T12:13:19.094Z,2.62
2019-05-15T12:15:48.573Z,2.20
2019-05-15T12:18:17.437Z,2.17
2019-05-15T12:20:48.337Z,1.77
2019-05-15T12:23:16.562Z,2.05
2019-05-15T12:25:45.208Z,1.62
2019-05-15T12:28:13.799Z,1.90
2019-05-15T12:30:42.370Z,2.47
2019-05-15T12:33:10.938Z,2.40
2019-05-15T12:35:40.328Z,1.87
2019-05-15T12:38:10.344Z,1.95
2019-05-15T13:00:42.030Z,2.02
2019-05-15T13:03:10.682Z,4.37
2019-05-15T13:05:39.514Z,1.90
2019-05-15T13:08:08.661Z,1.77
2019-05-15T13:10:38.580Z,2.20
2019-05-15T13:13:09.357Z,1.80
2019-05-15T13:15:41.147Z,2.50
2019-05-15T13:18:13.810Z,2.27
2019-05-15T13:20:38.647Z,2.83
2019-05-15T13:23:08.782Z,2.42
2019-05-15T13:25:39.440Z,2.05
2019-05-15T13:28:08.878Z,2.33
2019-05-15T13:30:41.195Z,1.92
2019-05-15T13:33:09.785Z,2.50
2019-05-15T13:35:38.676Z,2.20
2019-05-15T13:38:09.936Z,2.52
2019-05-15T13:40:41.751Z,2.00
2019-05-15T13:43:08.447Z,1.50
2019-05-15T13:48:09.003Z,2.30
2019-05-15T13:50:39.749Z,1.90
2019-05-15T13:53:10.474Z,2.22
2019-05-15T13:55:42.303Z,2.75
2019-05-15T13:58:09.140Z,4.55
2019-05-15T14:00:39.122Z,2.12
2019-05-15T14:03:09.265Z,2.22
2019-05-15T14:05:38.406Z,1.77
2019-05-15T14:08:07.469Z,1.90
2019-05-15T14:10:38.525Z,1.95
2019-05-15T14:13:06.529Z,1.77
2019-05-15T14:15:35.233Z,2.20
2019-05-15T14:18:03.888Z,2.17
2019-05-15T14:20:32.743Z,2.85
2019-05-15T14:23:01.276Z,1.77
2019-05-15T14:25:29.984Z,2.47
2019-05-15T14:27:59.411Z,2.27
2019-05-15T14:30:29.292Z,2.90
2019-05-15T14:32:59.822Z,2.90
2019-05-15T14:35:28.575Z,3.30
2019-05-15T14:38:05.913Z,2.47
2019-05-15T14:40:27.856Z,2.52
2019-05-15T14:42:59.174Z,2.40
2019-05-15T14:45:28.025Z,2.50
2019-05-15T14:47:58.137Z,1.87
2019-05-15T14:50:28.394Z,2.30
2019-05-15T14:52:58.568Z,2.60
2019-05-15T14:55:33.770Z,2.72
2019-05-15T14:57:58.883Z,2.20
2019-05-15T15:00:30.116Z,2.40
2019-05-15T15:02:58.745Z,4.65
2019-05-15T15:05:27.848Z,3.98
2019-05-15T15:07:58.595Z,2.70
2019-05-15T15:10:28.914Z,2.35
2019-05-15T15:12:58.580Z,3.02
2019-05-15T15:15:28.677Z,3.83
2019-05-15T15:17:58.350Z,3.85
2019-05-15T15:20:28.562Z,2.83
2019-05-15T15:22:58.771Z,2.80
2019-05-15T15:25:28.133Z,3.08
2019-05-15T15:27:58.624Z,4.80
2019-05-15T15:30:29.343Z,2.98
2019-05-15T15:32:57.703Z,3.40
2019-05-15T15:35:28.409Z,2.47
2019-05-15T15:37:58.077Z,3.83
2019-05-15T15:40:28.273Z,3.80
2019-05-15T15:42:58.028Z,4.25
2019-05-15T15:45:28.364Z,2.40
2019-05-15T15:47:58.803Z,2.70
2019-05-15T15:50:28.804Z,3.02
2019-05-15T15:52:59.316Z,3.17
2019-05-15T15:55:29.084Z,4.97
2019-05-15T15:57:59.289Z,5.58
2019-05-15T16:00:28.849Z,3.92
2019-05-15T16:02:57.746Z,5.00
2019-05-15T16:05:28.930Z,3.03
2019-05-15T16:07:59.059Z,2.90
2019-05-15T16:10:28.251Z,3.67
2019-05-15T16:12:58.267Z,3.08
2019-05-15T16:15:29.112Z,3.40
2019-05-15T16:17:59.258Z,3.35
2019-05-15T16:20:28.685Z,2.83
2019-05-15T16:22:59.135Z,3.45
2019-05-15T16:25:28.840Z,2.83
2019-05-15T16:27:57.869Z,2.95
2019-05-15T16:30:28.200Z,2.70
2019-05-15T16:32:58.529Z,2.50
2019-05-15T16:35:28.996Z,3.62
2019-05-15T16:37:58.454Z,5.28
2019-05-15T16:40:28.787Z,2.67
2019-05-15T16:42:58.029Z,2.72
2019-05-15T16:45:28.842Z,2.80
2019-05-15T16:47:58.671Z,2.83
2019-05-15T16:50:28.576Z,2.90
2019-05-15T16:52:58.449Z,2.80
2019-05-15T16:55:28.643Z,4.15
2019-05-15T16:57:58.526Z,2.92
2019-05-15T17:00:29.163Z,3.15
2019-05-15T17:03:09.206Z,3.33
2019-05-15T17:05:29.105Z,2.58
2019-05-15T17:07:58.312Z,2.70
2019-05-15T17:10:28.148Z,2.85
2019-05-15T17:12:58.312Z,2.92
2019-05-15T17:15:27.983Z,2.55
2019-05-15T17:17:58.285Z,3.30
2019-05-15T17:20:28.396Z,3.83
2019-05-15T17:22:57.959Z,3.15
2019-05-15T17:27:54.626Z,2.17
2019-05-15T17:30:23.289Z,3.12
2019-05-15T17:32:52.153Z,2.98
2019-05-15T17:35:20.773Z,3.62
2019-05-15T17:37:49.541Z,2.97
2019-05-15T17:40:18.399Z,3.70
2019-05-15T17:42:49.178Z,3.55
2019-05-15T17:45:19.345Z,3.35
2019-05-15T17:47:48.897Z,3.08
2019-05-15T17:50:19.068Z,3.40
2019-05-15T17:52:49.115Z,3.90
2019-05-15T17:55:18.528Z,3.10
2019-05-15T17:57:56.344Z,3.90
2019-05-15T18:00:19.272Z,3.65
2019-05-15T18:02:48.588Z,3.60
2019-05-15T18:05:18.889Z,4.85
2019-05-15T18:07:48.820Z,3.72
2019-05-15T18:10:18.792Z,3.72
2019-05-15T18:12:48.761Z,3.80
2019-05-15T18:15:18.000Z,3.83
2019-05-15T18:17:48.224Z,4.12
2019-05-15T18:20:29.166Z,4.00
2019-05-15T18:22:59.109Z,5.45
2019-05-15T18:25:27.545Z,5.05
2019-05-15T18:27:58.875Z,4.47
2019-05-15T18:30:28.226Z,3.75
2019-05-15T18:32:58.814Z,4.25
2019-05-15T18:35:29.068Z,4.45
2019-05-15T18:37:59.128Z,4.78
2019-05-15T18:40:27.871Z,4.95
2019-05-15T18:42:59.203Z,4.67
2019-05-15T18:45:29.003Z,4.17
2019-05-15T18:47:58.785Z,5.40
2019-05-15T18:50:28.480Z,5.53
2019-05-15T18:52:58.345Z,6.12
2019-05-15T18:55:27.436Z,12.78
2019-05-15T18:57:58.208Z,7.87
2019-05-15T19:00:29.264Z,7.50
2019-05-15T19:02:59.544Z,6.25
2019-05-15T19:05:28.063Z,7.22
2019-05-15T19:07:57.937Z,7.33
2019-05-15T19:10:28.266Z,7.62
2019-05-15T19:12:58.150Z,8.13
2019-05-15T19:15:28.605Z,7.35
2019-05-15T19:17:58.638Z,7.50
2019-05-15T19:20:28.123Z,5.67
2019-05-15T19:27:54.201Z,5.00
2019-05-15T19:30:23.343Z,4.90
2019-05-15T19:32:51.962Z,4.90
2019-05-15T19:35:21.014Z,5.17
2019-05-15T19:37:49.607Z,5.25
2019-05-15T19:40:18.966Z,5.33
2019-05-15T19:42:48.747Z,4.67
2019-05-15T19:45:17.899Z,4.78
2019-05-15T19:47:47.814Z,3.87
2019-05-15T19:50:18.114Z,4.55
2019-05-15T19:52:48.248Z,4.15
2019-05-15T19:55:17.706Z,4.45
2019-05-15T19:57:47.373Z,4.15
2019-05-15T20:00:18.645Z,4.50
2019-05-15T20:02:48.464Z,4.83
2019-05-15T20:05:18.335Z,4.12
2019-05-15T20:07:47.997Z,4.33
2019-05-15T20:12:47.954Z,6.97
2019-05-15T20:15:19.043Z,4.08
2019-05-15T20:17:47.824Z,4.33
2019-05-15T20:20:18.791Z,3.80
2019-05-15T20:22:47.817Z,2.90
2019-05-15T20:25:18.405Z,2.70
2019-05-15T20:27:48.172Z,3.22
2019-05-15T20:30:18.053Z,2.70
2019-05-15T20:32:47.924Z,2.90
2019-05-15T20:35:16.937Z,3.52
2019-05-15T20:37:45.538Z,2.50
2019-05-15T20:40:14.605Z,3.42
2019-05-15T20:42:43.197Z,2.05
2019-05-15T20:45:12.610Z,2.40
2019-05-15T20:50:10.273Z,2.42
2019-05-15T20:52:39.837Z,2.37
2019-05-15T20:55:08.869Z,2.30
2019-05-15T20:57:40.265Z,2.62
2019-05-15T21:00:10.662Z,2.10
2019-05-15T21:02:39.426Z,2.20
2019-05-15T21:05:08.926Z,1.87
2019-05-15T21:07:42.180Z,1.77
2019-05-15T21:10:10.102Z,1.90
2019-05-15T21:12:41.139Z,1.90
2019-05-15T21:15:10.226Z,1.80
2019-05-15T21:22:40.170Z,1.95
2019-05-15T21:25:10.763Z,2.20
2019-05-15T21:27:42.073Z,1.50
2019-05-15T21:30:11.251Z,1.60
2019-05-15T21:32:40.084Z,1.98
2019-05-15T21:35:09.568Z,1.98
2019-05-15T21:37:39.237Z,2.27
2019-05-15T21:40:08.803Z,2.25
2019-05-15T21:45:14.260Z,1.92
2019-05-15T21:47:38.785Z,1.50
2019-05-15T21:50:08.378Z,1.65
2019-05-15T21:57:39.996Z,2.02
2019-05-15T22:00:10.311Z,1.60
2019-05-15T22:02:39.017Z,1.60
2019-05-15T22:05:08.631Z,1.57
2019-05-15T22:07:38.867Z,1.90
2019-05-15T22:10:11.011Z,1.60
2019-05-15T22:12:39.154Z,1.90
2019-05-15T22:15:08.967Z,1.80
2019-05-15T22:17:39.016Z,1.87
2019-05-15T22:20:09.451Z,1.50
2019-05-15T22:22:38.277Z,1.77
2019-05-15T22:25:11.385Z,1.85
2019-05-15T22:27:38.793Z,1.82
2019-05-15T22:30:08.638Z,1.80
2019-05-15T22:32:41.262Z,1.95
2019-05-15T22:35:13.468Z,1.98
2019-05-15T22:37:41.491Z,1.77
2019-05-15T22:40:10.051Z,1.90
2019-05-15T22:42:39.203Z,1.90
2019-05-15T22:45:11.787Z,2.05
2019-05-15T22:47:39.432Z,2.08
2019-05-15T22:50:08.667Z,1.87
2019-05-15T22:52:38.952Z,1.52
2019-05-15T22:55:08.804Z,1.70
2019-05-15T22:57:38.859Z,1.65
2019-05-15T23:00:09.298Z,1.90
2019-05-15T23:02:38.055Z,2.42
2019-05-15T23:05:23.024Z,1.80
2019-05-15T23:07:38.911Z,1.80
2019-05-15T23:10:09.085Z,1.62
2019-05-15T23:12:38.219Z,1.80
2019-05-15T23:15:08.770Z,1.60
2019-05-15T23:17:38.474Z,1.47
2019-05-15T23:20:08.855Z,1.87
2019-05-15T23:22:38.509Z,1.47
2019-05-15T23:25:07.954Z,1.72
2019-05-15T23:27:38.154Z,2.08
2019-05-15T23:30:09.093Z,1.70
2019-05-15T23:32:39.220Z,2.08
2019-05-15T23:35:08.424Z,2.00
2019-05-15T23:37:39.150Z,1.80
2019-05-15T23:40:08.853Z,1.95
2019-05-15T23:42:39.041Z,2.58
2019-05-15T23:45:08.624Z,1.95
2019-05-15T23:47:38.495Z,2.00
2019-05-15T23:50:07.614Z,1.92
2019-05-15T23:52:38.340Z,1.80
2019-05-15T23:55:08.613Z,2.10
2019-05-15T23:57:39.212Z,1.62
